createdAt,value
2023-04-10T00:00:12.368Z,18.73
2023-04-10T00:02:38.860Z,21.30
2023-04-10T00:05:06.975Z,20.40
2023-04-10T00:07:33.598Z,20.27
2023-04-10T00:10:00.291Z,19.20
2023-04-10T00:12:26.671Z,21.08
2023-04-10T00:14:53.115Z,21.45
2023-04-10T00:17:19.547Z,19.70
2023-04-10T00:19:45.966Z,20.83
2023-04-10T00:22:12.374Z,23.30
2023-04-10T00:24:38.819Z,19.08
2023-04-10T00:27:05.222Z,21.75
2023-04-10T00:29:31.924Z,19.95
2023-04-10T00:31:58.366Z,22.00
2023-04-10T00:34:25.626Z,20.80
2023-04-10T00:36:52.288Z,22.55
2023-04-10T00:39:19.328Z,21.95
2023-04-10T00:41:45.678Z,25.45
2023-04-10T00:44:12.112Z,17.02
2023-04-10T00:46:40.210Z,21.02
2023-04-10T00:49:06.772Z,22.58
2023-04-10T00:51:33.623Z,22.90
2023-04-10T00:54:00.554Z,19.98
2023-04-10T00:56:27.201Z,22.73
2023-04-10T00:58:53.627Z,21.08
2023-04-10T01:01:20.953Z,19.55
2023-04-10T01:03:47.550Z,21.38
2023-04-10T01:06:35.754Z,22.15
2023-04-10T01:09:12.964Z,22.13
2023-04-10T01:11:53.507Z,19.27
2023-04-10T01:14:30.959Z,20.60
2023-04-10T01:17:07.952Z,21.40
2023-04-10T01:19:57.624Z,20.27
2023-04-10T01:22:29.743Z,21.38
2023-04-10T01:25:16.160Z,21.58
2023-04-10T01:27:58.041Z,24.08
2023-04-10T01:30:25.074Z,19.52
2023-04-10T01:32:54.312Z,20.00
2023-04-10T01:35:21.977Z,21.95
2023-04-10T01:37:51.016Z,19.75
2023-04-10T01:40:21.040Z,18.73
2023-04-10T01:42:57.523Z,22.02
2023-04-10T01:45:28.354Z,18.13
2023-04-10T01:50:23.702Z,23.67
2023-04-10T01:52:51.459Z,20.15
2023-04-10T01:55:20.932Z,21.73
2023-04-10T01:57:48.353Z,20.70
2023-04-10T02:00:16.238Z,19.70
2023-04-10T02:02:43.758Z,20.33
2023-04-10T02:05:10.964Z,21.85
2023-04-10T02:08:05.564Z,25.63
2023-04-10T02:10:41.657Z,20.45
2023-04-10T02:13:11.874Z,21.70
2023-04-10T02:15:42.592Z,21.30
2023-04-10T02:20:37.413Z,24.67
2023-04-10T02:23:04.162Z,19.00
2023-04-10T02:25:35.010Z,21.38
2023-04-10T02:28:08.484Z,21.75
2023-04-10T02:30:35.638Z,22.17
2023-04-10T02:33:02.426Z,17.48
2023-04-10T02:35:28.849Z,18.05
2023-04-10T02:37:55.302Z,18.85
2023-04-10T02:40:21.650Z,22.20
2023-04-10T02:42:48.926Z,22.60
2023-04-10T02:45:15.310Z,29.25
2023-04-10T02:47:42.039Z,24.33
2023-04-10T02:50:09.339Z,23.63
2023-04-10T02:52:35.696Z,25.48
2023-04-10T02:55:02.188Z,19.07
2023-04-10T02:57:28.682Z,17.35
2023-04-10T02:59:55.336Z,18.77
2023-04-10T03:02:21.900Z,17.15
2023-04-10T03:04:48.455Z,16.88
2023-04-10T03:07:15.118Z,17.83
2023-04-10T03:09:41.571Z,18.27
2023-04-10T03:12:08.224Z,18.23
2023-04-10T03:14:34.889Z,17.13
2023-04-10T03:17:02.113Z,18.05
2023-04-10T03:19:28.936Z,18.75
2023-04-10T03:21:55.593Z,20.58
2023-04-10T03:24:22.289Z,22.02
2023-04-10T03:26:48.987Z,17.73
2023-04-10T03:29:15.830Z,18.45
2023-04-10T03:31:42.272Z,22.05
2023-04-10T03:34:08.877Z,19.27
2023-04-10T03:36:35.298Z,20.65
2023-04-10T03:39:01.817Z,21.35
2023-04-10T03:41:28.171Z,20.83
2023-04-10T03:43:54.973Z,22.20
2023-04-10T03:46:21.574Z,23.70
2023-04-10T03:48:48.190Z,21.98
2023-04-10T03:51:14.577Z,21.60
2023-04-10T03:53:41.073Z,23.08
2023-04-10T03:56:08.700Z,21.47
2023-04-10T03:58:35.141Z,22.67
2023-04-10T04:01:01.699Z,25.70
2023-04-10T04:03:28.577Z,23.67
2023-04-10T04:05:55.570Z,25.50
2023-04-10T04:08:22.006Z,23.50
2023-04-10T04:10:48.482Z,19.17
2023-04-10T04:13:15.065Z,19.13
2023-04-10T04:15:41.487Z,19.37
2023-04-10T04:18:09.196Z,18.23
2023-04-10T04:20:35.526Z,17.65
2023-04-10T04:23:01.899Z,19.20
2023-04-10T04:25:28.322Z,17.23
2023-04-10T04:27:54.707Z,22.73
2023-04-10T04:30:21.149Z,17.73
2023-04-10T04:32:47.606Z,21.60
2023-04-10T04:35:14.188Z,20.97
2023-04-10T04:37:40.536Z,21.30
2023-04-10T04:40:07.779Z,21.30
2023-04-10T04:42:34.131Z,22.30
2023-04-10T04:45:00.483Z,20.27
2023-04-10T04:47:27.100Z,19.70
2023-04-10T04:49:53.637Z,20.10
2023-04-10T04:52:20.104Z,18.83
2023-04-10T04:54:46.553Z,17.10
2023-04-10T04:57:13.245Z,19.80
2023-04-10T04:59:39.694Z,21.37
2023-04-10T05:02:06.718Z,18.42
2023-04-10T05:04:33.191Z,22.37
2023-04-10T05:06:59.609Z,17.97
2023-04-10T05:09:25.986Z,19.20
2023-04-10T05:11:52.428Z,17.67
2023-04-10T05:14:20.057Z,17.15
2023-04-10T05:16:46.467Z,19.13
2023-04-10T05:19:12.956Z,17.88
2023-04-10T05:21:39.347Z,17.00
2023-04-10T05:24:05.854Z,17.60
2023-04-10T05:26:32.360Z,18.60
2023-04-10T05:28:58.787Z,17.08
2023-04-10T05:31:25.226Z,16.60
2023-04-10T05:33:52.005Z,16.27
2023-04-10T05:36:18.489Z,15.95
2023-04-10T05:38:45.061Z,15.02
2023-04-10T05:41:11.605Z,16.33
2023-04-10T05:43:38.340Z,15.02
2023-04-10T05:46:06.116Z,14.60
2023-04-10T05:48:32.610Z,17.80
2023-04-10T05:50:59.091Z,14.63
2023-04-10T05:53:29.850Z,15.43
2023-04-10T05:55:56.559Z,17.45
2023-04-10T05:58:23.397Z,14.30
2023-04-10T06:00:49.826Z,13.02
2023-04-10T06:03:16.591Z,16.85
2023-04-10T06:05:43.432Z,13.95
2023-04-10T06:08:10.281Z,15.00
2023-04-10T06:10:37.097Z,15.68
2023-04-10T06:13:03.986Z,14.95
2023-04-10T06:15:30.464Z,13.73
2023-04-10T06:17:57.073Z,14.82
2023-04-10T06:20:23.898Z,14.13
2023-04-10T06:22:50.609Z,12.05
2023-04-10T06:25:17.276Z,10.63
2023-04-10T06:27:43.763Z,11.45
2023-04-10T06:30:10.628Z,9.50
2023-04-10T06:32:37.555Z,10.13
2023-04-10T06:35:04.882Z,15.20
2023-04-10T06:37:32.013Z,9.20
2023-04-10T06:40:06.585Z,11.15
2023-04-10T06:42:33.387Z,10.07
2023-04-10T06:45:00.633Z,10.40
2023-04-10T06:47:27.227Z,10.57
2023-04-10T06:49:53.767Z,9.38
2023-04-10T06:52:20.381Z,8.95
2023-04-10T06:54:47.305Z,10.07
2023-04-10T06:57:14.063Z,9.10
2023-04-10T06:59:40.382Z,10.55
2023-04-10T07:02:07.789Z,11.35
2023-04-10T07:04:34.417Z,8.55
2023-04-10T07:07:00.883Z,9.40
2023-04-10T07:09:27.785Z,9.70
2023-04-10T07:11:54.193Z,9.48
2023-04-10T07:14:20.789Z,7.93
2023-04-10T07:16:47.560Z,8.48
2023-04-10T07:19:14.132Z,8.55
2023-04-10T07:21:40.584Z,9.75
2023-04-10T07:24:07.066Z,8.98
2023-04-10T07:26:33.504Z,9.23
2023-04-10T07:28:59.941Z,9.38
2023-04-10T07:31:26.460Z,8.38
2023-04-10T07:33:53.128Z,7.18
2023-04-10T07:36:19.630Z,7.03
2023-04-10T07:38:46.029Z,8.95
2023-04-10T07:41:12.581Z,6.85
2023-04-10T07:43:38.991Z,7.65
2023-04-10T07:46:05.693Z,7.78
2023-04-10T07:48:32.071Z,6.28
2023-04-10T07:50:58.789Z,7.20
2023-04-10T07:53:25.267Z,6.60
2023-04-10T07:55:51.774Z,6.68
2023-04-10T07:58:18.329Z,6.95
2023-04-10T08:00:44.843Z,6.45
2023-04-10T08:03:12.687Z,6.18
2023-04-10T08:05:39.743Z,6.75
2023-04-10T08:08:06.160Z,6.93
2023-04-10T08:10:32.707Z,7.25
2023-04-10T08:12:59.157Z,5.47
2023-04-10T08:15:25.686Z,5.72
2023-04-10T08:17:52.126Z,6.82
2023-04-10T08:20:18.914Z,5.63
2023-04-10T08:22:45.637Z,6.07
2023-04-10T08:25:12.149Z,6.45
2023-04-10T08:27:38.535Z,5.95
2023-04-10T08:30:05.826Z,5.85
2023-04-10T08:32:32.374Z,5.75
2023-04-10T08:34:59.274Z,5.93
2023-04-10T08:37:26.274Z,6.32
2023-04-10T08:39:53.336Z,6.18
2023-04-10T08:42:19.730Z,5.75
2023-04-10T08:44:49.148Z,6.05
2023-04-10T08:47:20.431Z,6.22
2023-04-10T08:49:54.959Z,6.43
2023-04-10T08:52:23.230Z,5.30
2023-04-10T08:54:54.448Z,5.47
2023-04-10T08:57:20.995Z,5.38
2023-04-10T08:59:49.268Z,6.20
2023-04-10T09:02:15.872Z,4.65
2023-04-10T09:04:53.050Z,4.93
2023-04-10T09:07:19.528Z,5.15
2023-04-10T09:09:46.193Z,5.55
2023-04-10T09:12:13.507Z,5.93
2023-04-10T09:14:40.985Z,4.80
2023-04-10T09:17:21.772Z,5.18
2023-04-10T09:19:49.992Z,4.80
2023-04-10T09:22:16.651Z,4.20
2023-04-10T09:24:46.341Z,4.28
2023-04-10T09:27:32.448Z,4.77
2023-04-10T09:29:59.428Z,5.97
2023-04-10T09:32:44.177Z,4.20
2023-04-10T09:35:12.560Z,3.83
2023-04-10T09:37:40.160Z,3.50
2023-04-10T09:40:20.244Z,3.80
2023-04-10T09:42:47.565Z,3.97
2023-04-10T09:45:14.124Z,4.47
2023-04-10T09:47:40.609Z,4.35
2023-04-10T09:50:07.902Z,3.17
2023-04-10T09:52:35.257Z,3.38
2023-04-10T09:55:04.705Z,3.08
2023-04-10T09:57:34.917Z,3.58
2023-04-10T10:00:03.990Z,2.72
2023-04-10T10:02:31.694Z,2.90
2023-04-10T10:04:59.134Z,2.45
2023-04-10T10:07:26.011Z,3.20
2023-04-10T10:09:53.201Z,6.30
2023-04-10T10:12:24.348Z,3.17
2023-04-10T10:15:09.165Z,2.83
2023-04-10T10:17:43.613Z,2.50
2023-04-10T10:20:11.681Z,2.45
2023-04-10T10:22:38.523Z,2.58
2023-04-10T10:25:05.399Z,2.53
2023-04-10T10:27:34.301Z,2.45
2023-04-10T10:30:02.873Z,2.47
2023-04-10T10:32:34.240Z,2.50
2023-04-10T10:35:01.951Z,2.53
2023-04-10T10:37:29.757Z,3.78
2023-04-10T10:40:10.679Z,2.47
2023-04-10T10:43:04.913Z,2.50
2023-04-10T10:45:37.782Z,3.55
2023-04-10T10:48:04.369Z,2.10
2023-04-10T10:50:56.842Z,2.20
2023-04-10T10:53:42.191Z,2.45
2023-04-10T10:56:21.807Z,2.50
2023-04-10T10:58:49.800Z,2.55
2023-04-10T11:01:23.226Z,2.75
2023-04-10T11:03:50.332Z,3.20
2023-04-10T11:06:18.552Z,2.30
2023-04-10T11:08:46.666Z,2.65
2023-04-10T11:11:24.322Z,2.20
2023-04-10T11:13:50.639Z,1.83
2023-04-10T11:16:17.579Z,2.45
2023-04-10T11:18:51.210Z,2.47
2023-04-10T11:21:23.932Z,1.95
2023-04-10T11:23:50.551Z,2.15
2023-04-10T11:26:35.174Z,2.30
2023-04-10T11:29:04.437Z,1.98
2023-04-10T11:31:31.051Z,2.78
2023-04-10T11:33:57.428Z,2.17
2023-04-10T11:36:25.180Z,2.15
2023-04-10T11:38:59.901Z,1.60
2023-04-10T11:41:37.084Z,1.23
2023-04-10T11:44:08.054Z,0.98
2023-04-10T11:46:38.925Z,0.90
2023-04-10T11:49:07.085Z,1.17
2023-04-10T11:51:33.729Z,1.45
2023-04-10T11:54:11.335Z,1.15
2023-04-10T11:56:39.577Z,3.47
2023-04-10T11:59:06.298Z,1.00
2023-04-10T12:01:34.111Z,3.78
2023-04-10T12:04:00.885Z,1.10
2023-04-10T12:06:27.867Z,1.00
2023-04-10T12:08:55.227Z,1.23
2023-04-10T12:11:24.492Z,2.83
2023-04-10T12:13:57.446Z,1.20
2023-04-10T12:16:24.977Z,1.67
2023-04-10T12:18:51.540Z,1.95
2023-04-10T12:21:18.304Z,1.38
2023-04-10T12:23:44.956Z,1.63
2023-04-10T12:26:16.692Z,1.58
2023-04-10T12:28:51.958Z,1.77
2023-04-10T12:31:19.150Z,1.50
2023-04-10T12:33:46.512Z,1.45
2023-04-10T12:36:23.866Z,1.50
2023-04-10T12:38:51.358Z,1.55
2023-04-10T12:41:25.033Z,1.65
2023-04-10T12:43:54.068Z,2.45
2023-04-10T12:46:27.903Z,1.45
2023-04-10T12:48:56.302Z,1.98
2023-04-10T12:51:50.265Z,1.48
2023-04-10T12:54:34.011Z,2.00
2023-04-10T12:57:01.448Z,1.75
2023-04-10T12:59:29.491Z,1.80
2023-04-10T13:01:56.391Z,1.73
2023-04-10T13:04:23.491Z,1.83
2023-04-10T13:06:50.102Z,2.20
2023-04-10T13:09:16.917Z,1.60
2023-04-10T13:11:44.646Z,1.63
2023-04-10T13:14:12.219Z,1.80
2023-04-10T13:16:38.978Z,1.70
2023-04-10T13:19:05.658Z,1.60
2023-04-10T13:21:32.324Z,1.40
2023-04-10T13:23:59.282Z,1.40
2023-04-10T13:26:25.896Z,1.70
2023-04-10T13:28:54.093Z,1.58
2023-04-10T13:31:21.142Z,1.48
2023-04-10T13:33:48.163Z,2.10
2023-04-10T13:36:15.533Z,1.63
2023-04-10T13:38:45.021Z,6.90
2023-04-10T13:41:11.758Z,1.85
2023-04-10T13:43:38.257Z,1.92
2023-04-10T13:46:05.776Z,60.45
2023-04-10T13:48:40.137Z,3.85
2023-04-10T13:51:08.162Z,1.70
2023-04-10T13:53:35.243Z,43.55
2023-04-10T13:56:02.043Z,19.63
2023-04-10T13:58:28.587Z,2.47
2023-04-10T14:00:55.189Z,1.75
2023-04-10T14:03:21.870Z,1.30
2023-04-10T14:05:48.375Z,2.88
2023-04-10T14:08:14.866Z,14.27
2023-04-10T14:10:41.603Z,37.60
2023-04-10T14:13:08.013Z,18.02
2023-04-10T14:15:34.470Z,68.03
2023-04-10T14:18:00.967Z,17.05
2023-04-10T14:20:27.373Z,13.65
2023-04-10T14:22:53.919Z,2.92
2023-04-10T14:25:20.675Z,3.28
2023-04-10T14:27:47.511Z,1.60
2023-04-10T14:30:14.355Z,2.05
2023-04-10T14:32:41.280Z,1.70
2023-04-10T14:35:08.350Z,1.42
2023-04-10T14:37:34.805Z,1.70
2023-04-10T14:40:01.261Z,1.67
2023-04-10T14:42:27.654Z,1.70
2023-04-10T14:44:54.365Z,1.73
2023-04-10T14:47:20.792Z,2.55
2023-04-10T14:49:47.250Z,1.90
2023-04-10T14:52:13.995Z,1.80
2023-04-10T14:54:40.310Z,1.73
2023-04-10T14:57:06.871Z,1.60
2023-04-10T14:59:33.509Z,1.60
2023-04-10T15:02:00.179Z,1.13
2023-04-10T15:04:26.957Z,1.48
2023-04-10T15:06:53.718Z,2.08
2023-04-10T15:09:21.894Z,1.98
2023-04-10T15:11:48.417Z,2.13
2023-04-10T15:14:14.811Z,2.53
2023-04-10T15:16:41.298Z,1.73
2023-04-10T15:19:08.109Z,1.60
2023-04-10T15:21:34.692Z,1.70
2023-04-10T15:24:01.259Z,3.03
2023-04-10T15:26:27.683Z,1.88
2023-04-10T15:28:54.243Z,1.85
2023-04-10T15:31:23.879Z,2.63
2023-04-10T15:33:52.235Z,1.77
2023-04-10T15:36:19.105Z,1.30
2023-04-10T15:38:45.643Z,3.25
2023-04-10T15:41:13.071Z,1.90
2023-04-10T15:43:39.592Z,2.10
2023-04-10T15:46:06.216Z,2.42
2023-04-10T15:48:32.663Z,2.33
2023-04-10T15:51:03.122Z,1.98
2023-04-10T15:55:56.177Z,2.08
2023-04-10T15:58:23.004Z,2.03
2023-04-10T16:00:49.380Z,2.10
2023-04-10T16:03:15.941Z,2.15
2023-04-10T16:05:42.655Z,3.33
2023-04-10T16:08:09.348Z,3.60
2023-04-10T16:10:35.882Z,2.88
2023-04-10T16:13:02.315Z,3.13
2023-04-10T16:15:29.117Z,2.63
2023-04-10T16:17:55.557Z,2.15
2023-04-10T16:20:22.059Z,2.97
2023-04-10T16:22:48.501Z,2.50
2023-04-10T16:25:14.879Z,5.07
2023-04-10T16:27:41.274Z,2.80
2023-04-10T16:30:08.607Z,3.55
2023-04-10T16:32:35.029Z,3.25
2023-04-10T16:35:01.785Z,2.50
2023-04-10T16:37:28.275Z,1.70
2023-04-10T16:39:55.085Z,2.47
2023-04-10T16:42:22.675Z,2.78
2023-04-10T16:44:49.124Z,1.50
2023-04-10T16:47:15.788Z,2.35
2023-04-10T16:49:42.369Z,2.22
2023-04-10T16:52:08.781Z,2.13
2023-04-10T16:54:35.333Z,4.45
2023-04-10T16:57:01.819Z,4.50
2023-04-10T16:59:28.536Z,2.67
2023-04-10T17:01:55.235Z,2.03
2023-04-10T17:04:21.776Z,5.80
2023-04-10T17:06:48.230Z,4.65
2023-04-10T17:09:14.652Z,2.03
2023-04-10T17:11:41.156Z,1.70
2023-04-10T17:14:07.692Z,2.35
2023-04-10T17:16:34.213Z,2.40
2023-04-10T17:19:00.688Z,1.85
2023-04-10T17:21:27.131Z,2.60
2023-04-10T17:23:53.717Z,2.30
2023-04-10T17:26:22.290Z,2.00
2023-04-10T17:28:49.510Z,2.95
2023-04-10T17:31:17.290Z,3.05
2023-04-10T17:33:44.335Z,3.28
2023-04-10T17:36:12.251Z,8.98
2023-04-10T17:38:39.541Z,4.32
2023-04-10T17:41:06.333Z,4.20
2023-04-10T17:43:33.736Z,4.60
2023-04-10T17:46:01.328Z,2.42
2023-04-10T17:48:28.760Z,2.60
2023-04-10T17:50:55.200Z,1.92
2023-04-10T17:53:21.839Z,1.95
2023-04-10T17:55:48.237Z,2.30
2023-04-10T17:58:14.688Z,1.95
2023-04-10T18:00:41.817Z,2.40
2023-04-10T18:03:09.466Z,3.45
2023-04-10T18:05:36.424Z,3.05
2023-04-10T18:08:03.370Z,2.70
2023-04-10T18:10:29.908Z,2.58
2023-04-10T18:12:56.587Z,2.28
2023-04-10T18:15:23.054Z,2.53
2023-04-10T18:17:49.596Z,2.40
2023-04-10T18:20:16.369Z,4.68
2023-04-10T18:22:42.770Z,2.03
2023-04-10T18:25:09.443Z,2.60
2023-04-10T18:27:36.079Z,2.30
2023-04-10T18:30:02.836Z,2.92
2023-04-10T18:32:29.526Z,3.22
2023-04-10T18:34:55.954Z,2.33
2023-04-10T18:37:22.371Z,2.28
2023-04-10T18:39:49.065Z,2.35
2023-04-10T18:42:15.524Z,2.47
2023-04-10T18:44:42.028Z,3.20
2023-04-10T18:47:08.824Z,2.22
2023-04-10T18:49:35.365Z,2.17
2023-04-10T18:52:02.304Z,2.08
2023-04-10T18:54:29.678Z,2.45
2023-04-10T18:56:56.430Z,2.47
2023-04-10T18:59:23.278Z,3.45
2023-04-10T19:01:49.792Z,3.40
2023-04-10T19:04:16.265Z,3.13
2023-04-10T19:06:42.791Z,2.13
2023-04-10T19:09:09.184Z,2.45
2023-04-10T19:11:35.804Z,3.10
2023-04-10T19:14:07.466Z,2.55
2023-04-10T19:19:00.804Z,3.03
2023-04-10T19:21:27.346Z,3.58
2023-04-10T19:23:53.906Z,4.13
2023-04-10T19:26:20.339Z,3.80
2023-04-10T19:28:47.092Z,4.05
2023-04-10T19:31:13.861Z,5.03
2023-04-10T19:33:40.277Z,4.72
2023-04-10T19:36:08.456Z,3.92
2023-04-10T19:38:35.574Z,7.03
2023-04-10T19:41:02.352Z,3.80
2023-04-10T19:43:28.760Z,5.28
2023-04-10T19:45:55.326Z,4.95
2023-04-10T19:48:21.760Z,4.35
2023-04-10T19:50:49.759Z,5.25
2023-04-10T19:53:16.299Z,5.13
2023-04-10T19:55:44.719Z,7.70
2023-04-10T19:58:25.284Z,7.50
2023-04-10T20:01:04.564Z,6.28
2023-04-10T20:03:31.327Z,5.55
2023-04-10T20:06:05.701Z,5.05
2023-04-10T20:08:32.421Z,5.05
2023-04-10T20:10:58.916Z,4.75
2023-04-10T20:13:25.679Z,6.13
2023-04-10T20:15:52.262Z,5.22
2023-04-10T20:18:18.873Z,5.10
2023-04-10T20:20:45.355Z,3.80
2023-04-10T20:23:12.463Z,3.38
2023-04-10T20:25:39.583Z,4.00
2023-04-10T20:28:06.448Z,4.55
2023-04-10T20:30:32.916Z,5.45
2023-04-10T20:32:59.466Z,11.52
2023-04-10T20:35:25.850Z,13.70
2023-04-10T20:37:52.351Z,10.07
2023-04-10T20:40:19.060Z,9.02
2023-04-10T20:42:45.487Z,7.75
2023-04-10T20:45:12.078Z,5.38
2023-04-10T20:47:38.527Z,5.03
2023-04-10T20:50:05.321Z,6.15
2023-04-10T20:52:31.727Z,4.35
2023-04-10T20:54:58.105Z,4.85
2023-04-10T20:57:24.640Z,5.78
2023-04-10T20:59:51.344Z,5.68
2023-04-10T21:02:17.942Z,4.75
2023-04-10T21:04:44.542Z,5.82
2023-04-10T21:07:11.220Z,7.82
2023-04-10T21:09:37.607Z,5.25
2023-04-10T21:12:04.578Z,3.17
2023-04-10T21:14:30.993Z,5.68
2023-04-10T21:16:57.659Z,5.53
2023-04-10T21:19:24.455Z,5.57
2023-04-10T21:21:50.851Z,5.57
2023-04-10T21:24:17.588Z,6.22
2023-04-10T21:26:44.003Z,5.05
2023-04-10T21:29:10.407Z,5.95
2023-04-10T21:31:36.817Z,4.93
2023-04-10T21:34:03.347Z,5.05
2023-04-10T21:36:29.749Z,4.00
2023-04-10T21:38:56.407Z,4.97
2023-04-10T21:41:22.995Z,5.18
2023-04-10T21:43:49.950Z,3.67
2023-04-10T21:46:16.353Z,4.10
2023-04-10T21:48:42.726Z,4.03
2023-04-10T21:51:09.154Z,4.88
2023-04-10T21:53:35.542Z,4.60
2023-04-10T21:56:02.316Z,5.35
2023-04-10T21:58:28.934Z,4.35
2023-04-10T22:00:57.624Z,3.95
2023-04-10T22:03:24.402Z,5.85
2023-04-10T22:05:51.239Z,5.85
2023-04-10T22:08:17.658Z,4.82
2023-04-10T22:10:44.056Z,8.35
2023-04-10T22:13:14.405Z,4.40
2023-04-10T22:15:47.672Z,4.32
2023-04-10T22:18:14.013Z,4.00
2023-04-10T22:20:40.479Z,5.47
2023-04-10T22:23:06.841Z,5.10
2023-04-10T22:25:33.917Z,5.85
2023-04-10T22:28:02.806Z,5.68
2023-04-10T22:30:29.291Z,6.18
2023-04-10T22:32:56.958Z,4.78
2023-04-10T22:35:23.542Z,5.22
2023-04-10T22:37:50.908Z,4.15
2023-04-10T22:40:17.349Z,4.47
2023-04-10T22:42:43.796Z,4.50
2023-04-10T22:45:10.726Z,4.03
2023-04-10T22:47:37.171Z,6.85
2023-04-10T22:50:03.830Z,5.28
2023-04-10T22:52:30.231Z,4.00
2023-04-10T22:54:57.535Z,3.80
2023-04-10T22:57:23.921Z,6.22
2023-04-10T22:59:50.404Z,5.43
2023-04-10T23:02:16.926Z,3.92
2023-04-10T23:04:43.480Z,2.78
2023-04-10T23:07:09.939Z,3.58
2023-04-10T23:09:36.688Z,4.72
2023-04-10T23:12:03.086Z,3.55
2023-04-10T23:14:30.504Z,4.35
2023-04-10T23:16:56.962Z,3.10
2023-04-10T23:19:23.332Z,4.53
2023-04-10T23:21:49.664Z,4.03
2023-04-10T23:24:16.337Z,2.40
2023-04-10T23:26:43.095Z,5.07
2023-04-10T23:29:09.597Z,4.60
2023-04-10T23:31:36.114Z,4.32
2023-04-10T23:34:04.383Z,4.10
2023-04-10T23:36:30.835Z,4.20
2023-04-10T23:38:57.277Z,3.45
2023-04-10T23:41:23.670Z,2.60
2023-04-10T23:43:50.065Z,2.63
2023-04-10T23:46:16.437Z,2.80
2023-04-10T23:48:42.834Z,3.85
2023-04-10T23:51:09.355Z,1.83
2023-04-10T23:53:36.119Z,3.10
2023-04-10T23:56:02.624Z,2.90
2023-04-10T23:58:29.035Z,1.42
